createdAt,value
2018-09-22T00:00:57.849Z,2.13
2018-09-22T00:03:26.300Z,1.37
2018-09-22T00:05:54.924Z,1.53
2018-09-22T00:08:23.631Z,1.90
2018-09-22T00:10:52.232Z,1.33
2018-09-22T00:13:20.813Z,1.20
2018-09-22T00:15:50.596Z,1.73
2018-09-22T00:18:19.781Z,1.20
2018-09-22T00:20:48.317Z,1.40
2018-09-22T00:23:16.960Z,1.40
2018-09-22T00:25:45.456Z,1.50
2018-09-22T00:28:14.020Z,1.70
2018-09-22T00:30:41.854Z,1.73
2018-09-22T00:33:10.329Z,1.70
2018-09-22T00:35:38.962Z,1.33
2018-09-22T00:38:07.590Z,1.67
2018-09-22T00:40:36.033Z,1.50
2018-09-22T00:43:04.751Z,2.27
2018-09-22T00:45:32.638Z,1.70
2018-09-22T00:48:00.932Z,1.70
2018-09-22T00:50:29.183Z,1.47
2018-09-22T00:52:57.412Z,2.10
2018-09-22T00:55:25.862Z,2.07
2018-09-22T00:57:54.156Z,1.43
2018-09-22T01:00:22.745Z,1.20
2018-09-22T01:02:51.227Z,1.73
2018-09-22T01:05:19.848Z,1.30
2018-09-22T01:07:48.239Z,1.20
2018-09-22T01:10:16.069Z,1.20
2018-09-22T01:12:44.561Z,1.10
2018-09-22T01:15:13.235Z,1.20
2018-09-22T01:17:41.805Z,1.70
2018-09-22T01:20:10.286Z,1.90
2018-09-22T01:22:38.700Z,1.27
2018-09-22T01:25:06.616Z,1.60
2018-09-22T01:27:35.203Z,1.37
2018-09-22T01:30:03.766Z,1.87
2018-09-22T01:32:32.276Z,1.20
2018-09-22T01:35:00.941Z,1.30
2018-09-22T01:37:29.334Z,1.30
2018-09-22T01:39:57.824Z,1.33
2018-09-22T01:42:25.664Z,1.70
2018-09-22T01:44:53.502Z,1.83
2018-09-22T01:47:22.112Z,2.07
2018-09-22T01:49:50.402Z,1.83
2018-09-22T01:52:19.094Z,1.43
2018-09-22T01:54:47.647Z,2.23
2018-09-22T01:57:16.265Z,1.87
2018-09-22T01:59:44.813Z,1.80
2018-09-22T02:02:13.434Z,1.87
2018-09-22T02:04:41.992Z,1.30
2018-09-22T02:07:10.632Z,2.17
2018-09-22T02:09:39.080Z,2.03
2018-09-22T02:12:07.471Z,1.60
2018-09-22T02:14:35.733Z,2.30
2018-09-22T02:17:04.186Z,1.80
2018-09-22T02:19:32.847Z,1.63
2018-09-22T02:22:01.484Z,2.00
2018-09-22T02:24:29.337Z,1.87
2018-09-22T02:26:57.754Z,1.57
2018-09-22T02:29:26.198Z,1.70
2018-09-22T02:31:54.824Z,1.70
2018-09-22T02:34:23.432Z,1.30
2018-09-22T02:36:51.912Z,1.33
2018-09-22T02:39:20.702Z,1.30
2018-09-22T02:41:49.359Z,1.37
2018-09-22T02:44:17.582Z,1.10
2018-09-22T02:46:45.826Z,1.37
2018-09-22T02:49:14.299Z,1.60
2018-09-22T02:51:42.743Z,1.37
2018-09-22T02:54:11.178Z,1.53
2018-09-22T02:56:39.394Z,1.30
2018-09-22T02:59:07.852Z,1.80
2018-09-22T03:01:36.125Z,1.20
2018-09-22T03:04:04.044Z,1.40
2018-09-22T03:06:32.922Z,1.30
2018-09-22T03:09:01.431Z,1.30
2018-09-22T03:11:30.105Z,1.40
2018-09-22T03:13:58.692Z,1.30
2018-09-22T03:16:27.150Z,1.67
2018-09-22T03:18:55.547Z,2.00
2018-09-22T03:21:23.816Z,1.60
2018-09-22T03:23:52.270Z,1.70
2018-09-22T03:26:20.673Z,1.40
2018-09-22T03:28:48.929Z,1.60
2018-09-22T03:31:17.145Z,1.30
2018-09-22T03:33:45.406Z,1.70
2018-09-22T03:36:13.900Z,1.50
2018-09-22T03:38:42.573Z,1.70
2018-09-22T03:41:10.429Z,1.97
2018-09-22T03:43:39.000Z,2.00
2018-09-22T03:46:06.864Z,1.93
2018-09-22T03:48:35.478Z,2.20
2018-09-22T03:51:03.718Z,1.67
2018-09-22T03:53:32.171Z,1.40
2018-09-22T03:56:00.796Z,1.93
2018-09-22T03:58:29.240Z,1.90
2018-09-22T04:00:57.666Z,2.63
2018-09-22T04:03:26.141Z,2.40
2018-09-22T04:05:54.010Z,2.10
2018-09-22T04:08:22.374Z,1.83
2018-09-22T04:10:50.717Z,2.10
2018-09-22T04:13:19.322Z,2.00
2018-09-22T04:15:47.932Z,2.87
2018-09-22T04:18:16.733Z,1.77
2018-09-22T04:20:45.392Z,1.90
2018-09-22T04:23:14.020Z,2.03
2018-09-22T04:25:42.587Z,2.33
2018-09-22T04:28:10.861Z,1.93
2018-09-22T04:30:39.523Z,2.33
2018-09-22T04:33:07.991Z,2.07
2018-09-22T04:35:36.626Z,2.57
2018-09-22T04:38:05.259Z,2.30
2018-09-22T04:40:33.977Z,2.00
2018-09-22T04:43:02.356Z,1.93
2018-09-22T04:45:31.016Z,2.50
2018-09-22T04:47:59.409Z,2.30
2018-09-22T04:50:27.816Z,2.30
2018-09-22T04:52:55.651Z,2.07
2018-09-22T04:55:23.487Z,2.00
2018-09-22T04:57:51.989Z,2.47
2018-09-22T05:00:20.665Z,2.47
2018-09-22T05:02:49.267Z,2.33
2018-09-22T05:05:17.697Z,2.10
2018-09-22T05:07:46.329Z,2.27
2018-09-22T05:10:14.536Z,2.20
2018-09-22T05:12:43.013Z,2.60
2018-09-22T05:15:11.767Z,2.83
2018-09-22T05:17:40.288Z,2.57
2018-09-22T05:20:08.726Z,2.33
2018-09-22T05:22:37.384Z,2.77
2018-09-22T05:25:05.800Z,2.40
2018-09-22T05:27:34.447Z,2.43
2018-09-22T05:30:02.355Z,2.47
2018-09-22T05:32:30.935Z,2.40
2018-09-22T05:34:58.757Z,2.93
2018-09-22T05:37:26.598Z,2.83
2018-09-22T05:39:55.077Z,2.70
2018-09-22T05:42:23.682Z,2.70
2018-09-22T05:44:52.137Z,2.60
2018-09-22T05:47:20.640Z,2.30
2018-09-22T05:49:49.219Z,2.30
2018-09-22T05:52:17.852Z,2.10
2018-09-22T05:54:46.332Z,2.83
2018-09-22T05:57:15.106Z,2.07
2018-09-22T05:59:43.987Z,1.90
2018-09-22T06:02:12.378Z,2.03
2018-09-22T06:04:40.864Z,1.80
2018-09-22T06:07:09.285Z,1.80
2018-09-22T06:09:37.982Z,1.60
2018-09-22T06:12:05.820Z,1.90
2018-09-22T06:14:33.655Z,1.73
2018-09-22T06:17:01.478Z,2.43
2018-09-22T06:19:29.377Z,2.10
2018-09-22T06:21:57.191Z,2.47
2018-09-22T06:24:25.047Z,2.10
2018-09-22T06:26:53.150Z,1.80
2018-09-22T06:29:21.014Z,1.90
2018-09-22T06:31:48.878Z,2.27
2018-09-22T06:34:16.718Z,1.80
2018-09-22T06:36:45.272Z,1.93
2018-09-22T06:39:13.524Z,2.00
2018-09-22T06:41:41.356Z,1.60
2018-09-22T06:44:09.631Z,1.83
2018-09-22T06:46:37.468Z,1.60
2018-09-22T06:49:06.089Z,1.70
2018-09-22T06:51:33.999Z,2.20
2018-09-22T06:54:01.858Z,2.00
2018-09-22T06:56:30.189Z,1.87
2018-09-22T06:58:59.038Z,1.77
2018-09-22T07:01:26.971Z,2.00
2018-09-22T07:03:54.832Z,1.90
2018-09-22T07:06:22.718Z,1.90
2018-09-22T07:08:50.571Z,1.67
2018-09-22T07:11:19.079Z,1.70
2018-09-22T07:13:46.972Z,1.60
2018-09-22T07:16:14.788Z,2.20
2018-09-22T07:18:42.613Z,1.90
2018-09-22T07:21:10.456Z,1.43
2018-09-22T07:23:38.976Z,1.80
2018-09-22T07:26:06.860Z,1.73
2018-09-22T07:28:35.379Z,2.23
2018-09-22T07:31:03.615Z,2.23
2018-09-22T07:33:32.067Z,1.87
2018-09-22T07:36:00.307Z,1.77
2018-09-22T07:38:28.540Z,1.43
2018-09-22T07:40:56.994Z,2.17
2018-09-22T07:43:25.430Z,1.73
2018-09-22T07:45:53.802Z,1.67
2018-09-22T07:48:22.360Z,1.90
2018-09-22T07:50:51.027Z,1.90
2018-09-22T07:53:19.636Z,2.27
2018-09-22T07:55:48.082Z,2.83
2018-09-22T07:58:16.439Z,1.50
2018-09-22T08:00:44.399Z,2.47
2018-09-22T08:03:13.003Z,1.97
2018-09-22T08:05:41.664Z,1.80
2018-09-22T08:08:10.244Z,1.70
2018-09-22T08:10:38.896Z,2.00
2018-09-22T08:13:07.331Z,2.30
2018-09-22T08:15:35.183Z,2.20
2018-09-22T08:18:03.639Z,1.90
2018-09-22T08:20:31.795Z,1.90
2018-09-22T08:23:00.154Z,1.90
2018-09-22T08:25:28.703Z,2.13
2018-09-22T08:27:57.229Z,1.87
2018-09-22T08:30:25.135Z,1.97
2018-09-22T08:32:53.511Z,1.67
2018-09-22T08:35:21.885Z,2.03
2018-09-22T08:37:50.947Z,2.27
2018-09-22T08:40:18.825Z,1.60
2018-09-22T08:42:47.220Z,2.97
2018-09-22T08:45:15.685Z,2.03
2018-09-22T08:47:43.516Z,1.60
2018-09-22T08:50:11.474Z,1.70
2018-09-22T08:52:39.310Z,1.63
2018-09-22T08:55:07.854Z,2.00
2018-09-22T08:57:36.033Z,1.10
2018-09-22T09:00:04.206Z,1.43
2018-09-22T09:02:32.075Z,1.40
2018-09-22T09:04:59.944Z,1.40
2018-09-22T09:07:27.812Z,1.40
2018-09-22T09:09:55.636Z,1.20
2018-09-22T09:12:23.625Z,1.73
2018-09-22T09:14:51.461Z,1.03
2018-09-22T09:17:20.122Z,1.37
2018-09-22T09:19:48.707Z,1.37
2018-09-22T09:22:17.146Z,1.30
2018-09-22T09:24:45.772Z,1.53
2018-09-22T09:27:14.244Z,1.47
2018-09-22T09:29:42.837Z,1.20
2018-09-22T09:32:10.754Z,1.23
2018-09-22T09:34:38.758Z,1.80
2018-09-22T09:37:06.638Z,1.33
2018-09-22T09:39:35.228Z,1.50
2018-09-22T09:42:03.118Z,1.60
2018-09-22T09:44:30.985Z,1.67
2018-09-22T09:46:58.830Z,1.63
2018-09-22T09:49:26.767Z,1.57
2018-09-22T09:51:54.601Z,1.50
2018-09-22T09:54:22.424Z,1.63
2018-09-22T09:56:50.295Z,1.30
2018-09-22T09:59:18.187Z,1.70
2018-09-22T10:01:46.017Z,1.37
2018-09-22T10:04:14.537Z,1.50
2018-09-22T10:06:42.400Z,1.87
2018-09-22T10:09:11.000Z,1.70
2018-09-22T10:11:39.527Z,2.30
2018-09-22T10:14:07.624Z,1.80
2018-09-22T10:16:35.507Z,1.63
2018-09-22T10:19:03.465Z,1.57
2018-09-22T10:21:31.321Z,1.50
2018-09-22T10:23:59.186Z,1.70
2018-09-22T10:26:27.553Z,1.57
2018-09-22T10:28:56.223Z,1.50
2018-09-22T10:31:24.807Z,1.60
2018-09-22T10:33:53.231Z,1.63
2018-09-22T10:36:22.128Z,1.20
2018-09-22T10:38:50.757Z,1.37
2018-09-22T10:41:18.589Z,1.37
2018-09-22T10:43:46.490Z,1.50
2018-09-22T10:46:14.409Z,1.20
2018-09-22T10:48:42.315Z,1.00
2018-09-22T10:51:11.054Z,1.40
2018-09-22T10:53:38.909Z,1.23
2018-09-22T10:56:06.767Z,1.23
2018-09-22T10:58:34.638Z,1.50
2018-09-22T11:01:03.130Z,0.90
2018-09-22T11:03:31.911Z,1.60
2018-09-22T11:05:59.825Z,1.53
2018-09-22T11:08:27.947Z,1.47
2018-09-22T11:10:56.278Z,1.60
2018-09-22T11:13:24.747Z,1.60
2018-09-22T11:15:52.666Z,1.70
2018-09-22T11:18:21.489Z,1.27
2018-09-22T11:20:49.312Z,1.10
2018-09-22T11:23:17.691Z,1.40
2018-09-22T11:25:46.185Z,2.07
2018-09-22T11:28:14.271Z,1.40
2018-09-22T11:30:42.190Z,1.47
2018-09-22T11:33:10.121Z,1.40
2018-09-22T11:35:38.749Z,1.33
2018-09-22T11:38:07.197Z,1.63
2018-09-22T11:40:35.194Z,1.30
2018-09-22T11:43:03.089Z,1.17
2018-09-22T11:45:31.247Z,1.77
2018-09-22T11:47:59.103Z,1.00
2018-09-22T11:50:26.981Z,1.50
2018-09-22T11:52:54.836Z,1.53
2018-09-22T11:55:22.693Z,1.60
2018-09-22T11:57:50.651Z,2.00
2018-09-22T12:00:19.727Z,1.03
2018-09-22T12:02:48.595Z,1.50
2018-09-22T12:05:17.053Z,1.20
2018-09-22T12:07:44.920Z,1.10
2018-09-22T12:10:12.769Z,1.23
2018-09-22T12:12:41.016Z,1.77
2018-09-22T12:15:08.876Z,1.10
2018-09-22T12:17:36.709Z,0.90
2018-09-22T12:20:04.683Z,1.20
2018-09-22T12:22:32.515Z,1.50
2018-09-22T12:25:00.353Z,1.37
2018-09-22T12:27:28.213Z,1.30
2018-09-22T12:29:56.282Z,1.30
2018-09-22T12:32:24.182Z,1.50
2018-09-22T12:34:52.661Z,1.67
2018-09-22T12:37:21.348Z,1.57
2018-09-22T12:39:49.306Z,1.77
2018-09-22T12:42:17.156Z,1.37
2018-09-22T12:44:45.636Z,1.50
2018-09-22T12:47:13.501Z,1.60
2018-09-22T12:49:41.922Z,1.90
2018-09-22T12:52:10.544Z,1.20
2018-09-22T12:54:38.387Z,1.30
2018-09-22T12:57:06.269Z,1.30
2018-09-22T12:59:34.092Z,1.00
2018-09-22T13:02:01.940Z,1.67
2018-09-22T13:04:29.772Z,1.20
2018-09-22T13:06:57.598Z,1.30
2018-09-22T13:09:26.065Z,1.17
2018-09-22T13:11:53.915Z,1.00
2018-09-22T13:14:22.572Z,1.20
2018-09-22T13:16:50.493Z,1.30
2018-09-22T13:19:18.544Z,1.07
2018-09-22T13:21:46.373Z,1.20
2018-09-22T13:24:14.953Z,1.00
2018-09-22T13:26:43.576Z,1.23
2018-09-22T13:29:12.054Z,1.00
2018-09-22T13:31:40.424Z,1.30
2018-09-22T13:34:08.245Z,1.40
2018-09-22T13:36:36.084Z,1.20
2018-09-22T13:39:05.121Z,1.10
2018-09-22T13:41:33.633Z,1.40
2018-09-22T13:44:02.264Z,1.30
2018-09-22T13:46:30.900Z,1.17
2018-09-22T13:48:58.807Z,1.10
2018-09-22T13:51:27.391Z,1.30
2018-09-22T13:53:55.200Z,2.17
2018-09-22T13:56:23.088Z,1.20
2018-09-22T13:58:50.920Z,1.40
2018-09-22T14:01:18.737Z,1.07
2018-09-22T14:03:46.592Z,1.27
2018-09-22T14:06:15.068Z,1.20
2018-09-22T14:08:43.697Z,1.50
2018-09-22T14:11:12.142Z,1.03
2018-09-22T14:13:39.988Z,1.20
2018-09-22T14:16:08.626Z,1.03
2018-09-22T14:18:37.088Z,1.30
2018-09-22T14:21:05.614Z,1.50
2018-09-22T14:23:33.436Z,1.00
2018-09-22T14:26:01.276Z,1.23
2018-09-22T14:28:29.621Z,1.20
2018-09-22T14:30:57.548Z,1.23
2018-09-22T14:33:25.383Z,0.93
2018-09-22T14:35:53.186Z,1.10
2018-09-22T14:38:21.060Z,0.97
2018-09-22T14:40:48.910Z,1.30
2018-09-22T14:43:16.786Z,1.27
2018-09-22T14:45:44.597Z,1.40
2018-09-22T14:48:12.438Z,1.43
2018-09-22T14:50:40.713Z,0.93
2018-09-22T14:53:08.695Z,0.90
2018-09-22T14:55:36.537Z,1.00
2018-09-22T14:58:04.476Z,1.27
2018-09-22T15:00:33.094Z,1.00
2018-09-22T15:03:01.731Z,1.20
2018-09-22T15:05:30.354Z,1.27
2018-09-22T15:07:58.487Z,1.40
2018-09-22T15:10:27.048Z,1.23
2018-09-22T15:12:55.446Z,1.43
2018-09-22T15:15:23.292Z,1.10
2018-09-22T15:17:51.608Z,1.13
2018-09-22T15:20:19.453Z,0.90
2018-09-22T15:22:47.348Z,1.33
2018-09-22T15:25:15.284Z,1.00
2018-09-22T15:27:43.559Z,1.17
2018-09-22T15:30:12.360Z,1.10
2018-09-22T15:32:40.246Z,1.37
2018-09-22T15:35:08.391Z,1.10
2018-09-22T15:37:36.517Z,1.23
2018-09-22T15:40:05.172Z,0.90
2018-09-22T15:42:33.833Z,1.20
2018-09-22T15:45:01.685Z,1.40
2018-09-22T15:47:30.065Z,1.30
2018-09-22T15:49:57.937Z,2.80
2018-09-22T15:52:26.623Z,1.90
2018-09-22T15:54:55.196Z,1.60
2018-09-22T15:57:23.472Z,1.00
2018-09-22T15:59:52.097Z,0.77
2018-09-22T16:02:20.761Z,1.33
2018-09-22T16:04:48.716Z,1.30
2018-09-22T16:07:16.711Z,1.30
2018-09-22T16:09:45.129Z,1.00
2018-09-22T16:12:16.585Z,1.07
2018-09-22T16:14:44.771Z,1.43
2018-09-22T16:17:13.133Z,1.70
2018-09-22T16:19:41.057Z,1.60
2018-09-22T16:22:08.925Z,1.47
2018-09-22T16:24:36.765Z,1.70
2018-09-22T16:27:06.000Z,1.63
2018-09-22T16:29:34.694Z,1.20
2018-09-22T16:32:02.742Z,1.43
2018-09-22T16:34:30.719Z,1.67
2018-09-22T16:36:58.748Z,1.40
2018-09-22T16:39:28.487Z,1.30
2018-09-22T16:41:57.224Z,1.27
2018-09-22T16:44:25.773Z,1.27
2018-09-22T16:46:53.686Z,1.70
2018-09-22T16:49:21.854Z,1.23
2018-09-22T16:51:49.710Z,1.50
2018-09-22T16:54:17.593Z,2.00
2018-09-22T16:56:45.530Z,1.10
2018-09-22T16:59:13.407Z,1.30
2018-09-22T17:01:41.340Z,1.07
2018-09-22T17:04:09.256Z,1.20
2018-09-22T17:06:37.052Z,1.77
2018-09-22T17:09:06.170Z,1.57
2018-09-22T17:11:34.668Z,1.27
2018-09-22T17:14:02.508Z,1.33
2018-09-22T17:16:30.452Z,1.30
2018-09-22T17:18:58.241Z,1.47
2018-09-22T17:21:26.081Z,2.03
2018-09-22T17:23:53.923Z,1.20
2018-09-22T17:26:21.855Z,1.07
2018-09-22T17:28:49.754Z,1.67
2018-09-22T17:33:51.927Z,1.67
2018-09-22T17:36:19.797Z,1.80
2018-09-22T17:38:48.301Z,1.67
2018-09-22T17:41:16.243Z,1.70
2018-09-22T17:43:44.092Z,2.03
2018-09-22T17:46:12.400Z,1.50
2018-09-22T17:48:40.240Z,1.40
2018-09-22T17:51:08.575Z,1.50
2018-09-22T17:53:37.359Z,2.33
2018-09-22T17:56:06.171Z,2.67
2018-09-22T17:58:34.476Z,2.93
2018-09-22T18:01:02.409Z,1.77
2018-09-22T18:03:30.281Z,1.53
2018-09-22T18:05:58.814Z,1.73
2018-09-22T18:08:26.725Z,1.63
2018-09-22T18:10:55.224Z,1.80
2018-09-22T18:13:23.478Z,2.30
2018-09-22T18:15:51.941Z,1.57
2018-09-22T18:18:19.784Z,1.90
2018-09-22T18:20:47.624Z,1.67
2018-09-22T18:23:15.462Z,1.50
2018-09-22T18:25:43.288Z,1.53
2018-09-22T18:28:11.143Z,2.00
2018-09-22T18:30:39.417Z,2.17
2018-09-22T18:33:07.729Z,2.17
2018-09-22T18:35:35.559Z,2.17
2018-09-22T18:38:03.484Z,2.47
2018-09-22T18:40:31.305Z,2.53
2018-09-22T18:42:59.257Z,2.00
2018-09-22T18:45:27.122Z,2.40
2018-09-22T18:47:55.764Z,2.50
2018-09-22T18:50:24.399Z,2.30
2018-09-22T18:52:53.038Z,2.63
2018-09-22T18:55:21.263Z,2.87
2018-09-22T18:57:49.480Z,2.60
2018-09-22T19:00:17.745Z,2.50
2018-09-22T19:02:45.965Z,2.90
2018-09-22T19:05:14.443Z,2.63
2018-09-22T19:07:43.081Z,3.10
2018-09-22T19:10:11.761Z,2.47
2018-09-22T19:12:40.476Z,2.43
2018-09-22T19:15:14.534Z,2.57
2018-09-22T19:18:04.168Z,2.63
2018-09-22T19:20:45.562Z,2.97
2018-09-22T19:23:17.608Z,2.53
2018-09-22T19:25:50.475Z,3.00
2018-09-22T19:28:24.696Z,2.97
2018-09-22T19:30:55.562Z,2.47
2018-09-22T19:33:54.026Z,4.77
2018-09-22T19:37:34.720Z,3.40
2018-09-22T19:40:07.459Z,2.70
2018-09-22T19:43:14.884Z,2.20
2018-09-22T19:45:48.570Z,2.80
2018-09-22T19:48:21.915Z,4.10
2018-09-22T19:50:54.088Z,2.90
2018-09-22T19:53:23.244Z,2.73
2018-09-22T19:55:51.855Z,3.00
2018-09-22T19:58:20.938Z,3.60
2018-09-22T20:00:49.622Z,2.93
2018-09-22T20:03:18.612Z,3.47
2018-09-22T20:05:47.205Z,4.43
2018-09-22T20:08:15.831Z,4.30
2018-09-22T20:10:44.455Z,3.90
2018-09-22T20:13:12.914Z,3.43
2018-09-22T20:15:42.991Z,3.73
2018-09-22T20:18:11.648Z,3.60
2018-09-22T20:20:40.548Z,3.67
2018-09-22T20:23:09.304Z,4.17
2018-09-22T20:25:38.812Z,3.17
2018-09-22T20:28:07.333Z,4.93
2018-09-22T20:30:35.905Z,3.83
2018-09-22T20:33:04.538Z,4.27
2018-09-22T20:35:33.195Z,3.87
2018-09-22T20:38:01.730Z,5.30
2018-09-22T20:40:30.047Z,4.63
2018-09-22T20:42:58.672Z,4.40
2018-09-22T20:45:27.349Z,4.43
2018-09-22T20:47:56.136Z,4.27
2018-09-22T20:50:24.663Z,4.67
2018-09-22T20:52:53.251Z,4.37
2018-09-22T20:55:21.876Z,4.50
2018-09-22T20:57:50.685Z,3.83
2018-09-22T21:00:19.173Z,3.97
2018-09-22T21:02:47.636Z,3.53
2018-09-22T21:05:16.006Z,4.33
2018-09-22T21:07:44.477Z,3.20
2018-09-22T21:10:13.128Z,3.67
2018-09-22T21:12:41.751Z,3.67
2018-09-22T21:15:10.452Z,3.20
2018-09-22T21:17:38.798Z,3.30
2018-09-22T21:20:07.407Z,3.30
2018-09-22T21:22:35.921Z,3.70
2018-09-22T21:25:04.355Z,3.77
2018-09-22T21:27:32.815Z,4.40
2018-09-22T21:30:01.264Z,3.80
2018-09-22T21:32:29.867Z,3.83
2018-09-22T21:34:58.502Z,4.17
2018-09-22T21:37:27.128Z,3.73
2018-09-22T21:39:55.535Z,3.80
2018-09-22T21:42:24.064Z,3.50
2018-09-22T21:44:52.611Z,3.37
2018-09-22T21:47:20.937Z,3.30
2018-09-22T21:49:49.305Z,4.43
2018-09-22T21:52:17.741Z,3.23
2018-09-22T21:54:46.099Z,3.30
2018-09-22T21:57:14.706Z,3.43
2018-09-22T21:59:43.295Z,2.80
2018-09-22T22:02:11.953Z,3.50
2018-09-22T22:04:40.614Z,3.57
2018-09-22T22:07:08.988Z,2.83
2018-09-22T22:09:37.598Z,3.37
2018-09-22T22:12:06.049Z,2.90
2018-09-22T22:14:34.615Z,2.70
2018-09-22T22:17:02.908Z,2.60
2018-09-22T22:19:31.377Z,2.77
2018-09-22T22:21:59.995Z,3.50
2018-09-22T22:24:29.019Z,2.70
2018-09-22T22:26:57.611Z,4.20
2018-09-22T22:29:26.005Z,3.90
2018-09-22T22:31:54.757Z,2.97
2018-09-22T22:34:23.405Z,2.73
2018-09-22T22:36:51.798Z,3.17
2018-09-22T22:39:20.295Z,3.13
2018-09-22T22:41:48.935Z,3.13
2018-09-22T22:44:17.368Z,2.67
2018-09-22T22:46:45.989Z,3.03
2018-09-22T22:49:14.767Z,2.63
2018-09-22T22:51:43.251Z,2.97
2018-09-22T22:54:12.024Z,2.70
2018-09-22T22:56:40.442Z,3.27
2018-09-22T22:59:08.970Z,3.07
2018-09-22T23:01:37.388Z,3.00
2018-09-22T23:04:05.862Z,3.33
2018-09-22T23:06:34.262Z,2.63
2018-09-22T23:09:02.766Z,2.77
2018-09-22T23:11:31.305Z,2.40
2018-09-22T23:13:59.803Z,2.93
2018-09-22T23:16:28.449Z,2.70
2018-09-22T23:18:56.856Z,2.90
2018-09-22T23:21:25.319Z,2.37
2018-09-22T23:23:53.769Z,2.20
2018-09-22T23:26:22.398Z,3.07
2018-09-22T23:28:51.088Z,2.53
2018-09-22T23:31:19.693Z,2.73
2018-09-22T23:33:48.316Z,2.43
2018-09-22T23:36:16.723Z,2.37
2018-09-22T23:38:45.188Z,2.40
2018-09-22T23:41:13.810Z,2.17
2018-09-22T23:43:42.264Z,2.27
2018-09-22T23:46:10.659Z,2.60
2018-09-22T23:48:38.926Z,2.87
2018-09-22T23:51:07.178Z,2.40
2018-09-22T23:53:35.649Z,1.90
2018-09-22T23:56:04.258Z,2.00
2018-09-22T23:58:32.909Z,2.20
